Terminal Aerodrome Forecast
Issued by NWS

Home | Current Version | Previous Version | Text Only | Print | Product List | Glossary On
Versions: 1 2 3 4 5 6 7 8 9 10 11 12 13 14 15 16 17 18 19 20 21
916
FTUS46 KSEW 122351
TAFOLM
TAF
KOLM 122351Z 1300/1324 24006KT P6SM VCSH SCT025 SCT040
     FM130300 21006KT P6SM SCT020 BKN035
     FM130800 20007KT 5SM -SHRA BR BKN012 OVC020
     FM131200 20008KT P6SM VCSH SCT012 BKN020 OVC030
     FM131900 19011KT 4SM -RA BR OVC015=

USA.gov is the U.S. government's official web portal to all federal, state and local government web resources and services.